sensor_id;sensor_type;location;lat;lon;timestamp;P1;durP1;ratioP1;P2;durP2;ratioP2
8887;SDS011;4480;52.370;9.748;2023-05-21T00:00:01;8.37;;;7.57;;
8887;SDS011;4480;52.370;9.748;2023-05-21T00:02:32;7.87;;;7.07;;
8887;SDS011;4480;52.370;9.748;2023-05-21T00:04:59;8.70;;;7.90;;
8887;SDS011;4480;52.370;9.748;2023-05-21T00:07:26;8.67;;;7.83;;
8887;SDS011;4480;52.370;9.748;2023-05-21T00:09:54;9.97;;;7.70;;
8887;SDS011;4480;52.370;9.748;2023-05-21T00:12:21;9.57;;;7.87;;
8887;SDS011;4480;52.370;9.748;2023-05-21T00:14:48;9.70;;;8.10;;
8887;SDS011;4480;52.370;9.748;2023-05-21T00:17:15;8.83;;;7.87;;
8887;SDS011;4480;52.370;9.748;2023-05-21T00:19:42;8.13;;;6.87;;
8887;SDS011;4480;52.370;9.748;2023-05-21T00:22:08;8.30;;;7.50;;
8887;SDS011;4480;52.370;9.748;2023-05-21T00:24:35;8.50;;;7.13;;
8887;SDS011;4480;52.370;9.748;2023-05-21T00:27:03;9.67;;;8.17;;
8887;SDS011;4480;52.370;9.748;2023-05-21T00:29:30;9.43;;;7.37;;
8887;SDS011;4480;52.370;9.748;2023-05-21T00:31:57;10.47;;;7.50;;
8887;SDS011;4480;52.370;9.748;2023-05-21T00:34:24;8.10;;;7.40;;
8887;SDS011;4480;52.370;9.748;2023-05-21T00:36:51;9.53;;;8.33;;
8887;SDS011;4480;52.370;9.748;2023-05-21T00:39:19;8.57;;;7.53;;
8887;SDS011;4480;52.370;9.748;2023-05-21T00:41:46;9.87;;;8.20;;
8887;SDS011;4480;52.370;9.748;2023-05-21T00:44:14;9.00;;;8.10;;
8887;SDS011;4480;52.370;9.748;2023-05-21T00:46:42;14.47;;;8.17;;
8887;SDS011;4480;52.370;9.748;2023-05-21T00:49:12;9.30;;;8.30;;
8887;SDS011;4480;52.370;9.748;2023-05-21T00:51:39;9.57;;;7.33;;
8887;SDS011;4480;52.370;9.748;2023-05-21T00:54:09;8.50;;;7.50;;
8887;SDS011;4480;52.370;9.748;2023-05-21T00:56:35;8.47;;;7.67;;
8887;SDS011;4480;52.370;9.748;2023-05-21T00:59:02;7.90;;;7.00;;
8887;SDS011;4480;52.370;9.748;2023-05-21T01:01:31;8.80;;;7.17;;
8887;SDS011;4480;52.370;9.748;2023-05-21T01:04:00;8.13;;;7.20;;
8887;SDS011;4480;52.370;9.748;2023-05-21T01:06:27;8.90;;;8.00;;
8887;SDS011;4480;52.370;9.748;2023-05-21T01:08:58;8.47;;;7.63;;
8887;SDS011;4480;52.370;9.748;2023-05-21T01:11:29;8.77;;;7.90;;
8887;SDS011;4480;52.370;9.748;2023-05-21T01:14:03;8.77;;;7.90;;
8887;SDS011;4480;52.370;9.748;2023-05-21T01:16:34;12.93;;;8.03;;
8887;SDS011;4480;52.370;9.748;2023-05-21T01:19:03;11.90;;;7.90;;
8887;SDS011;4480;52.370;9.748;2023-05-21T01:21:30;10.87;;;8.60;;
8887;SDS011;4480;52.370;9.748;2023-05-21T01:24:02;9.40;;;7.53;;
8887;SDS011;4480;52.370;9.748;2023-05-21T01:26:31;8.43;;;7.60;;
8887;SDS011;4480;52.370;9.748;2023-05-21T01:29:02;7.93;;;7.23;;
8887;SDS011;4480;52.370;9.748;2023-05-21T01:31:30;8.80;;;8.00;;
8887;SDS011;4480;52.370;9.748;2023-05-21T01:34:00;8.00;;;7.17;;
8887;SDS011;4480;52.370;9.748;2023-05-21T01:36:33;8.97;;;7.70;;
8887;SDS011;4480;52.370;9.748;2023-05-21T01:39:06;10.50;;;7.33;;
8887;SDS011;4480;52.370;9.748;2023-05-21T01:41:39;10.57;;;8.00;;
8887;SDS011;4480;52.370;9.748;2023-05-21T01:44:10;9.10;;;7.40;;
8887;SDS011;4480;52.370;9.748;2023-05-21T01:46:37;9.00;;;7.73;;
8887;SDS011;4480;52.370;9.748;2023-05-21T01:49:05;7.77;;;6.93;;
8887;SDS011;4480;52.370;9.748;2023-05-21T01:51:33;12.07;;;7.40;;
8887;SDS011;4480;52.370;9.748;2023-05-21T01:54:01;7.87;;;7.03;;
8887;SDS011;4480;52.370;9.748;2023-05-21T01:56:29;8.13;;;7.33;;
8887;SDS011;4480;52.370;9.748;2023-05-21T01:58:58;8.63;;;7.07;;
8887;SDS011;4480;52.370;9.748;2023-05-21T02:01:25;8.77;;;7.20;;
8887;SDS011;4480;52.370;9.748;2023-05-21T02:03:54;10.43;;;7.60;;
8887;SDS011;4480;52.370;9.748;2023-05-21T02:06:20;8.83;;;7.60;;
8887;SDS011;4480;52.370;9.748;2023-05-21T02:08:47;8.97;;;8.07;;
8887;SDS011;4480;52.370;9.748;2023-05-21T02:11:15;9.00;;;7.67;;
8887;SDS011;4480;52.370;9.748;2023-05-21T02:13:43;8.63;;;7.30;;
8887;SDS011;4480;52.370;9.748;2023-05-21T02:16:10;10.87;;;7.53;;
8887;SDS011;4480;52.370;9.748;2023-05-21T02:18:38;9.00;;;8.10;;
8887;SDS011;4480;52.370;9.748;2023-05-21T02:21:06;8.80;;;7.73;;
8887;SDS011;4480;52.370;9.748;2023-05-21T02:23:32;10.20;;;7.70;;
8887;SDS011;4480;52.370;9.748;2023-05-21T02:26:00;7.87;;;7.17;;
8887;SDS011;4480;52.370;9.748;2023-05-21T02:28:26;8.30;;;7.50;;
8887;SDS011;4480;52.370;9.748;2023-05-21T02:30:56;9.40;;;7.80;;
8887;SDS011;4480;52.370;9.748;2023-05-21T02:33:22;8.30;;;7.37;;
8887;SDS011;4480;52.370;9.748;2023-05-21T02:35:50;8.20;;;7.40;;
8887;SDS011;4480;52.370;9.748;2023-05-21T02:38:16;8.63;;;7.57;;
8887;SDS011;4480;52.370;9.748;2023-05-21T02:40:47;9.17;;;6.70;;
8887;SDS011;4480;52.370;9.748;2023-05-21T02:43:15;7.77;;;6.63;;
8887;SDS011;4480;52.370;9.748;2023-05-21T02:45:41;9.37;;;7.43;;
8887;SDS011;4480;52.370;9.748;2023-05-21T02:48:09;8.20;;;7.40;;
8887;SDS011;4480;52.370;9.748;2023-05-21T02:50:36;8.50;;;7.70;;
8887;SDS011;4480;52.370;9.748;2023-05-21T02:53:03;7.53;;;6.83;;
8887;SDS011;4480;52.370;9.748;2023-05-21T02:55:30;8.13;;;6.23;;
8887;SDS011;4480;52.370;9.748;2023-05-21T02:57:57;8.70;;;7.67;;
8887;SDS011;4480;52.370;9.748;2023-05-21T03:00:23;8.70;;;7.80;;
8887;SDS011;4480;52.370;9.748;2023-05-21T03:02:50;8.40;;;7.00;;
8887;SDS011;4480;52.370;9.748;2023-05-21T03:05:18;9.20;;;7.40;;
8887;SDS011;4480;52.370;9.748;2023-05-21T03:07:45;8.50;;;7.00;;
8887;SDS011;4480;52.370;9.748;2023-05-21T03:10:12;8.50;;;7.60;;
8887;SDS011;4480;52.370;9.748;2023-05-21T03:12:38;8.20;;;7.40;;
8887;SDS011;4480;52.370;9.748;2023-05-21T03:15:05;8.87;;;6.87;;
8887;SDS011;4480;52.370;9.748;2023-05-21T03:17:33;7.83;;;7.00;;
8887;SDS011;4480;52.370;9.748;2023-05-21T03:20:00;7.80;;;7.10;;
8887;SDS011;4480;52.370;9.748;2023-05-21T03:22:30;8.20;;;7.30;;
8887;SDS011;4480;52.370;9.748;2023-05-21T03:24:57;10.20;;;6.90;;
8887;SDS011;4480;52.370;9.748;2023-05-21T03:27:25;7.87;;;7.07;;
8887;SDS011;4480;52.370;9.748;2023-05-21T03:29:52;10.23;;;7.63;;
8887;SDS011;4480;52.370;9.748;2023-05-21T03:32:19;7.80;;;7.03;;
8887;SDS011;4480;52.370;9.748;2023-05-21T03:34:46;7.57;;;6.87;;
8887;SDS011;4480;52.370;9.748;2023-05-21T03:37:13;8.00;;;7.03;;
8887;SDS011;4480;52.370;9.748;2023-05-21T03:39:41;10.30;;;6.90;;
8887;SDS011;4480;52.370;9.748;2023-05-21T03:42:08;8.17;;;6.53;;
8887;SDS011;4480;52.370;9.748;2023-05-21T03:44:35;8.03;;;7.27;;
8887;SDS011;4480;52.370;9.748;2023-05-21T03:47:01;8.10;;;6.80;;
8887;SDS011;4480;52.370;9.748;2023-05-21T03:49:28;7.00;;;6.30;;
8887;SDS011;4480;52.370;9.748;2023-05-21T03:51:55;8.53;;;5.90;;
8887;SDS011;4480;52.370;9.748;2023-05-21T03:54:22;7.43;;;6.60;;
8887;SDS011;4480;52.370;9.748;2023-05-21T03:56:50;8.13;;;6.70;;
8887;SDS011;4480;52.370;9.748;2023-05-21T03:59:16;6.90;;;6.20;;
8887;SDS011;4480;52.370;9.748;2023-05-21T04:01:43;7.13;;;6.47;;
8887;SDS011;4480;52.370;9.748;2023-05-21T04:04:10;8.53;;;6.03;;
8887;SDS011;4480;52.370;9.748;2023-05-21T04:06:37;7.50;;;6.80;;
8887;SDS011;4480;52.370;9.748;2023-05-21T04:11:44;8.07;;;7.30;;
8887;SDS011;4480;52.370;9.748;2023-05-21T04:14:11;7.00;;;6.33;;
8887;SDS011;4480;52.370;9.748;2023-05-21T04:16:38;11.17;;;7.03;;
8887;SDS011;4480;52.370;9.748;2023-05-21T04:19:07;9.00;;;5.90;;
8887;SDS011;4480;52.370;9.748;2023-05-21T04:21:34;7.10;;;6.27;;
8887;SDS011;4480;52.370;9.748;2023-05-21T04:24:01;6.60;;;5.87;;
8887;SDS011;4480;52.370;9.748;2023-05-21T04:26:28;10.20;;;6.67;;
8887;SDS011;4480;52.370;9.748;2023-05-21T04:28:59;9.47;;;6.53;;
8887;SDS011;4480;52.370;9.748;2023-05-21T04:31:28;8.40;;;6.40;;
8887;SDS011;4480;52.370;9.748;2023-05-21T04:33:55;9.87;;;6.73;;
8887;SDS011;4480;52.370;9.748;2023-05-21T04:36:22;6.40;;;5.80;;
8887;SDS011;4480;52.370;9.748;2023-05-21T04:38:49;7.50;;;6.47;;
8887;SDS011;4480;52.370;9.748;2023-05-21T04:41:16;6.43;;;5.83;;
8887;SDS011;4480;52.370;9.748;2023-05-21T04:43:45;9.17;;;6.27;;
8887;SDS011;4480;52.370;9.748;2023-05-21T04:46:13;8.10;;;6.00;;
8887;SDS011;4480;52.370;9.748;2023-05-21T04:48:40;7.13;;;6.40;;
8887;SDS011;4480;52.370;9.748;2023-05-21T04:51:06;8.00;;;6.53;;
8887;SDS011;4480;52.370;9.748;2023-05-21T04:53:33;8.30;;;5.73;;
8887;SDS011;4480;52.370;9.748;2023-05-21T04:56:00;7.43;;;6.33;;
8887;SDS011;4480;52.370;9.748;2023-05-21T04:58:27;6.90;;;6.03;;
8887;SDS011;4480;52.370;9.748;2023-05-21T05:00:57;6.90;;;6.17;;
8887;SDS011;4480;52.370;9.748;2023-05-21T05:03:28;6.47;;;5.87;;
8887;SDS011;4480;52.370;9.748;2023-05-21T05:05:55;6.53;;;5.93;;
8887;SDS011;4480;52.370;9.748;2023-05-21T05:08:22;5.80;;;5.20;;
8887;SDS011;4480;52.370;9.748;2023-05-21T05:10:48;7.30;;;5.40;;
8887;SDS011;4480;52.370;9.748;2023-05-21T05:13:15;8.63;;;6.53;;
8887;SDS011;4480;52.370;9.748;2023-05-21T05:15:42;6.97;;;6.10;;
8887;SDS011;4480;52.370;9.748;2023-05-21T05:18:09;9.83;;;6.30;;
8887;SDS011;4480;52.370;9.748;2023-05-21T05:20:41;8.10;;;5.87;;
8887;SDS011;4480;52.370;9.748;2023-05-21T05:23:11;12.43;;;7.23;;
8887;SDS011;4480;52.370;9.748;2023-05-21T05:25:38;10.17;;;6.60;;
8887;SDS011;4480;52.370;9.748;2023-05-21T05:28:05;10.00;;;7.23;;
8887;SDS011;4480;52.370;9.748;2023-05-21T05:30:32;8.93;;;7.20;;
8887;SDS011;4480;52.370;9.748;2023-05-21T05:33:00;8.73;;;6.70;;
8887;SDS011;4480;52.370;9.748;2023-05-21T05:35:26;8.57;;;7.77;;
8887;SDS011;4480;52.370;9.748;2023-05-21T05:37:55;8.50;;;6.80;;
8887;SDS011;4480;52.370;9.748;2023-05-21T05:40:22;8.37;;;7.53;;
8887;SDS011;4480;52.370;9.748;2023-05-21T05:42:48;7.90;;;7.20;;
8887;SDS011;4480;52.370;9.748;2023-05-21T05:45:16;9.20;;;7.97;;
8887;SDS011;4480;52.370;9.748;2023-05-21T05:47:43;9.43;;;8.27;;
8887;SDS011;4480;52.370;9.748;2023-05-21T05:50:10;9.43;;;6.70;;
8887;SDS011;4480;52.370;9.748;2023-05-21T05:52:37;7.60;;;6.90;;
8887;SDS011;4480;52.370;9.748;2023-05-21T05:55:06;10.33;;;8.20;;
8887;SDS011;4480;52.370;9.748;2023-05-21T05:57:33;9.77;;;7.77;;
8887;SDS011;4480;52.370;9.748;2023-05-21T06:00:01;11.27;;;8.30;;
8887;SDS011;4480;52.370;9.748;2023-05-21T06:02:28;10.23;;;9.10;;
8887;SDS011;4480;52.370;9.748;2023-05-21T06:04:55;10.97;;;8.63;;
8887;SDS011;4480;52.370;9.748;2023-05-21T06:07:22;9.57;;;8.57;;
8887;SDS011;4480;52.370;9.748;2023-05-21T06:09:49;10.47;;;8.90;;
8887;SDS011;4480;52.370;9.748;2023-05-21T06:12:17;14.23;;;8.93;;
8887;SDS011;4480;52.370;9.748;2023-05-21T06:14:44;11.30;;;8.37;;
8887;SDS011;4480;52.370;9.748;2023-05-21T06:17:12;10.47;;;8.40;;
8887;SDS011;4480;52.370;9.748;2023-05-21T06:19:40;10.17;;;9.17;;
8887;SDS011;4480;52.370;9.748;2023-05-21T06:22:07;11.20;;;8.87;;
8887;SDS011;4480;52.370;9.748;2023-05-21T06:24:33;10.10;;;9.10;;
8887;SDS011;4480;52.370;9.748;2023-05-21T06:27:00;14.00;;;9.07;;
8887;SDS011;4480;52.370;9.748;2023-05-21T06:29:29;10.77;;;9.77;;
8887;SDS011;4480;52.370;9.748;2023-05-21T06:31:56;10.37;;;8.57;;
8887;SDS011;4480;52.370;9.748;2023-05-21T06:34:23;10.37;;;8.93;;
8887;SDS011;4480;52.370;9.748;2023-05-21T06:36:50;10.27;;;9.13;;
8887;SDS011;4480;52.370;9.748;2023-05-21T06:39:17;11.53;;;9.97;;
8887;SDS011;4480;52.370;9.748;2023-05-21T06:41:44;12.30;;;9.47;;
8887;SDS011;4480;52.370;9.748;2023-05-21T06:44:10;13.37;;;10.10;;
8887;SDS011;4480;52.370;9.748;2023-05-21T06:46:39;10.80;;;9.53;;
8887;SDS011;4480;52.370;9.748;2023-05-21T06:49:06;12.27;;;10.97;;
8887;SDS011;4480;52.370;9.748;2023-05-21T06:51:33;12.67;;;11.17;;
8887;SDS011;4480;52.370;9.748;2023-05-21T06:53:59;12.47;;;10.67;;
8887;SDS011;4480;52.370;9.748;2023-05-21T06:56:26;11.23;;;10.20;;
8887;SDS011;4480;52.370;9.748;2023-05-21T06:58:53;13.00;;;10.43;;
8887;SDS011;4480;52.370;9.748;2023-05-21T07:01:20;11.37;;;10.27;;
8887;SDS011;4480;52.370;9.748;2023-05-21T07:03:49;11.70;;;10.50;;
8887;SDS011;4480;52.370;9.748;2023-05-21T07:06:16;14.33;;;10.40;;
8887;SDS011;4480;52.370;9.748;2023-05-21T07:08:43;12.40;;;11.20;;
8887;SDS011;4480;52.370;9.748;2023-05-21T07:11:12;12.63;;;11.27;;
8887;SDS011;4480;52.370;9.748;2023-05-21T07:13:38;12.97;;;10.60;;
8887;SDS011;4480;52.370;9.748;2023-05-21T07:16:05;11.93;;;10.80;;
8887;SDS011;4480;52.370;9.748;2023-05-21T07:18:33;13.60;;;11.23;;
8887;SDS011;4480;52.370;9.748;2023-05-21T07:21:01;13.80;;;12.07;;
8887;SDS011;4480;52.370;9.748;2023-05-21T07:23:27;13.03;;;11.50;;
8887;SDS011;4480;52.370;9.748;2023-05-21T07:25:54;13.20;;;11.40;;
8887;SDS011;4480;52.370;9.748;2023-05-21T07:28:21;12.40;;;11.03;;
8887;SDS011;4480;52.370;9.748;2023-05-21T07:30:48;16.87;;;12.73;;
8887;SDS011;4480;52.370;9.748;2023-05-21T07:33:15;23.87;;;13.70;;
8887;SDS011;4480;52.370;9.748;2023-05-21T07:35:44;14.70;;;13.20;;
8887;SDS011;4480;52.370;9.748;2023-05-21T07:38:12;18.90;;;13.43;;
8887;SDS011;4480;52.370;9.748;2023-05-21T07:40:39;14.17;;;12.67;;
8887;SDS011;4480;52.370;9.748;2023-05-21T07:43:06;14.60;;;12.97;;
8887;SDS011;4480;52.370;9.748;2023-05-21T07:45:32;15.47;;;13.70;;
8887;SDS011;4480;52.370;9.748;2023-05-21T07:47:59;16.30;;;12.50;;
8887;SDS011;4480;52.370;9.748;2023-05-21T07:50:26;15.50;;;13.80;;
8887;SDS011;4480;52.370;9.748;2023-05-21T07:52:53;15.40;;;13.67;;
8887;SDS011;4480;52.370;9.748;2023-05-21T07:55:21;13.83;;;12.47;;
8887;SDS011;4480;52.370;9.748;2023-05-21T07:57:48;13.90;;;12.50;;
8887;SDS011;4480;52.370;9.748;2023-05-21T08:00:16;15.27;;;13.63;;
8887;SDS011;4480;52.370;9.748;2023-05-21T08:02:43;16.07;;;14.37;;
8887;SDS011;4480;52.370;9.748;2023-05-21T08:05:10;15.00;;;13.40;;
8887;SDS011;4480;52.370;9.748;2023-05-21T08:07:37;15.80;;;14.00;;
8887;SDS011;4480;52.370;9.748;2023-05-21T08:10:04;15.07;;;13.47;;
8887;SDS011;4480;52.370;9.748;2023-05-21T08:12:34;15.73;;;13.37;;
8887;SDS011;4480;52.370;9.748;2023-05-21T08:15:00;16.37;;;14.57;;
8887;SDS011;4480;52.370;9.748;2023-05-21T08:17:27;15.33;;;13.70;;
8887;SDS011;4480;52.370;9.748;2023-05-21T08:19:54;14.20;;;12.73;;
8887;SDS011;4480;52.370;9.748;2023-05-21T08:22:21;15.80;;;14.20;;
8887;SDS011;4480;52.370;9.748;2023-05-21T08:24:48;18.03;;;14.40;;
8887;SDS011;4480;52.370;9.748;2023-05-21T08:27:15;15.50;;;13.70;;
8887;SDS011;4480;52.370;9.748;2023-05-21T08:29:43;16.73;;;14.43;;
8887;SDS011;4480;52.370;9.748;2023-05-21T08:32:10;16.70;;;14.90;;
8887;SDS011;4480;52.370;9.748;2023-05-21T08:34:36;19.53;;;16.70;;
8887;SDS011;4480;52.370;9.748;2023-05-21T08:37:03;19.50;;;15.23;;
8887;SDS011;4480;52.370;9.748;2023-05-21T08:39:30;17.87;;;15.57;;
8887;SDS011;4480;52.370;9.748;2023-05-21T08:42:06;16.23;;;14.63;;
8887;SDS011;4480;52.370;9.748;2023-05-21T08:44:41;17.03;;;15.07;;
8887;SDS011;4480;52.370;9.748;2023-05-21T08:47:14;17.20;;;14.97;;
8887;SDS011;4480;52.370;9.748;2023-05-21T08:49:43;17.00;;;15.30;;
8887;SDS011;4480;52.370;9.748;2023-05-21T08:52:13;18.03;;;16.20;;
8887;SDS011;4480;52.370;9.748;2023-05-21T08:54:41;18.70;;;15.97;;
8887;SDS011;4480;52.370;9.748;2023-05-21T08:57:10;19.87;;;17.73;;
8887;SDS011;4480;52.370;9.748;2023-05-21T08:59:38;19.07;;;16.47;;
8887;SDS011;4480;52.370;9.748;2023-05-21T09:02:09;17.57;;;15.77;;
8887;SDS011;4480;52.370;9.748;2023-05-21T09:04:38;16.57;;;14.87;;
8887;SDS011;4480;52.370;9.748;2023-05-21T09:07:05;19.07;;;16.77;;
8887;SDS011;4480;52.370;9.748;2023-05-21T09:09:33;18.20;;;16.30;;
8887;SDS011;4480;52.370;9.748;2023-05-21T09:12:04;17.40;;;15.70;;
8887;SDS011;4480;52.370;9.748;2023-05-21T09:14:32;17.57;;;14.57;;
8887;SDS011;4480;52.370;9.748;2023-05-21T09:16:59;17.00;;;15.37;;
8887;SDS011;4480;52.370;9.748;2023-05-21T09:19:27;19.57;;;16.00;;
8887;SDS011;4480;52.370;9.748;2023-05-21T09:22:00;18.20;;;16.23;;
8887;SDS011;4480;52.370;9.748;2023-05-21T09:24:29;17.13;;;15.40;;
8887;SDS011;4480;52.370;9.748;2023-05-21T09:26:56;19.50;;;17.20;;
8887;SDS011;4480;52.370;9.748;2023-05-21T09:29:23;18.00;;;16.10;;
8887;SDS011;4480;52.370;9.748;2023-05-21T09:31:54;18.80;;;17.00;;
8887;SDS011;4480;52.370;9.748;2023-05-21T09:34:21;16.37;;;14.77;;
8887;SDS011;4480;52.370;9.748;2023-05-21T09:36:51;17.77;;;15.97;;
8887;SDS011;4480;52.370;9.748;2023-05-21T09:39:27;19.57;;;16.43;;
8887;SDS011;4480;52.370;9.748;2023-05-21T09:41:55;19.67;;;17.70;;
8887;SDS011;4480;52.370;9.748;2023-05-21T09:44:22;18.13;;;16.37;;
8887;SDS011;4480;52.370;9.748;2023-05-21T09:46:49;18.43;;;16.07;;
8887;SDS011;4480;52.370;9.748;2023-05-21T09:49:21;21.13;;;16.90;;
8887;SDS011;4480;52.370;9.748;2023-05-21T09:51:54;17.33;;;15.53;;
8887;SDS011;4480;52.370;9.748;2023-05-21T09:54:22;16.50;;;14.73;;
8887;SDS011;4480;52.370;9.748;2023-05-21T09:56:49;19.07;;;17.10;;
8887;SDS011;4480;52.370;9.748;2023-05-21T09:59:17;17.00;;;15.30;;
8887;SDS011;4480;52.370;9.748;2023-05-21T10:01:44;17.40;;;15.63;;
8887;SDS011;4480;52.370;9.748;2023-05-21T10:06:57;18.00;;;16.30;;
8887;SDS011;4480;52.370;9.748;2023-05-21T10:09:26;17.40;;;15.37;;
8887;SDS011;4480;52.370;9.748;2023-05-21T10:11:55;16.63;;;15.03;;
8887;SDS011;4480;52.370;9.748;2023-05-21T10:14:24;18.87;;;16.90;;
8887;SDS011;4480;52.370;9.748;2023-05-21T10:16:53;16.83;;;15.13;;
8887;SDS011;4480;52.370;9.748;2023-05-21T10:19:20;18.07;;;16.17;;
8887;SDS011;4480;52.370;9.748;2023-05-21T10:21:49;18.00;;;16.07;;
8887;SDS011;4480;52.370;9.748;2023-05-21T10:24:18;18.10;;;16.30;;
8887;SDS011;4480;52.370;9.748;2023-05-21T10:26:45;17.90;;;16.10;;
8887;SDS011;4480;52.370;9.748;2023-05-21T10:29:14;18.77;;;16.77;;
8887;SDS011;4480;52.370;9.748;2023-05-21T10:31:41;18.20;;;16.50;;
8887;SDS011;4480;52.370;9.748;2023-05-21T10:34:10;16.80;;;15.00;;
8887;SDS011;4480;52.370;9.748;2023-05-21T10:36:38;17.20;;;15.47;;
8887;SDS011;4480;52.370;9.748;2023-05-21T10:39:06;16.63;;;15.00;;
8887;SDS011;4480;52.370;9.748;2023-05-21T10:41:37;16.70;;;14.20;;
8887;SDS011;4480;52.370;9.748;2023-05-21T10:44:14;15.67;;;14.13;;
8887;SDS011;4480;52.370;9.748;2023-05-21T10:50:01;16.57;;;14.77;;
8887;SDS011;4480;52.370;9.748;2023-05-21T10:52:51;16.13;;;14.63;;
8887;SDS011;4480;52.370;9.748;2023-05-21T10:55:34;16.77;;;15.07;;
8887;SDS011;4480;52.370;9.748;2023-05-21T10:58:22;16.17;;;14.57;;
8887;SDS011;4480;52.370;9.748;2023-05-21T11:01:25;15.53;;;14.10;;
8887;SDS011;4480;52.370;9.748;2023-05-21T11:03:53;15.60;;;13.93;;
8887;SDS011;4480;52.370;9.748;2023-05-21T11:06:21;14.43;;;12.97;;
8887;SDS011;4480;52.370;9.748;2023-05-21T11:08:50;15.70;;;13.93;;
8887;SDS011;4480;52.370;9.748;2023-05-21T11:17:00;14.83;;;13.43;;
8887;SDS011;4480;52.370;9.748;2023-05-21T11:19:31;15.20;;;13.70;;
8887;SDS011;4480;52.370;9.748;2023-05-21T11:22:07;14.77;;;13.27;;
8887;SDS011;4480;52.370;9.748;2023-05-21T11:24:39;14.30;;;12.93;;
8887;SDS011;4480;52.370;9.748;2023-05-21T11:27:06;15.00;;;13.70;;
8887;SDS011;4480;52.370;9.748;2023-05-21T11:29:39;14.30;;;12.90;;
8887;SDS011;4480;52.370;9.748;2023-05-21T11:32:08;14.70;;;13.33;;
8887;SDS011;4480;52.370;9.748;2023-05-21T11:34:37;14.33;;;12.97;;
8887;SDS011;4480;52.370;9.748;2023-05-21T11:42:48;13.50;;;12.20;;
8887;SDS011;4480;52.370;9.748;2023-05-21T11:45:18;14.07;;;12.60;;
8887;SDS011;4480;52.370;9.748;2023-05-21T11:47:46;15.57;;;12.60;;
8887;SDS011;4480;52.370;9.748;2023-05-21T11:50:13;15.53;;;13.93;;
8887;SDS011;4480;52.370;9.748;2023-05-21T11:52:41;14.50;;;13.13;;
8887;SDS011;4480;52.370;9.748;2023-05-21T11:55:08;14.23;;;12.93;;
8887;SDS011;4480;52.370;9.748;2023-05-21T11:57:36;14.33;;;12.97;;
8887;SDS011;4480;52.370;9.748;2023-05-21T12:00:11;13.23;;;11.93;;
8887;SDS011;4480;52.370;9.748;2023-05-21T12:02:44;15.03;;;12.60;;
8887;SDS011;4480;52.370;9.748;2023-05-21T12:05:12;13.07;;;11.70;;
8887;SDS011;4480;52.370;9.748;2023-05-21T12:07:38;13.57;;;12.30;;
8887;SDS011;4480;52.370;9.748;2023-05-21T12:10:06;13.27;;;12.07;;
8887;SDS011;4480;52.370;9.748;2023-05-21T12:12:34;12.77;;;11.60;;
8887;SDS011;4480;52.370;9.748;2023-05-21T12:15:00;13.20;;;11.90;;
8887;SDS011;4480;52.370;9.748;2023-05-21T12:17:29;12.57;;;11.50;;
8887;SDS011;4480;52.370;9.748;2023-05-21T12:19:58;13.50;;;12.30;;
8887;SDS011;4480;52.370;9.748;2023-05-21T12:22:25;14.00;;;12.80;;
8887;SDS011;4480;52.370;9.748;2023-05-21T12:24:53;12.87;;;11.77;;
8887;SDS011;4480;52.370;9.748;2023-05-21T12:27:22;13.17;;;11.90;;
8887;SDS011;4480;52.370;9.748;2023-05-21T12:29:49;12.50;;;11.40;;
8887;SDS011;4480;52.370;9.748;2023-05-21T12:32:17;13.23;;;12.07;;
8887;SDS011;4480;52.370;9.748;2023-05-21T12:34:46;13.90;;;12.30;;
8887;SDS011;4480;52.370;9.748;2023-05-21T12:37:15;14.70;;;12.40;;
8887;SDS011;4480;52.370;9.748;2023-05-21T12:39:46;14.97;;;12.50;;
8887;SDS011;4480;52.370;9.748;2023-05-21T12:42:14;15.43;;;13.93;;
8887;SDS011;4480;52.370;9.748;2023-05-21T12:44:42;13.47;;;12.27;;
8887;SDS011;4480;52.370;9.748;2023-05-21T12:47:09;13.80;;;12.30;;
8887;SDS011;4480;52.370;9.748;2023-05-21T12:49:38;14.37;;;12.97;;
8887;SDS011;4480;52.370;9.748;2023-05-21T12:52:09;13.50;;;12.13;;
8887;SDS011;4480;52.370;9.748;2023-05-21T12:54:38;13.17;;;11.83;;
8887;SDS011;4480;52.370;9.748;2023-05-21T12:57:16;14.60;;;13.20;;
8887;SDS011;4480;52.370;9.748;2023-05-21T12:59:48;12.60;;;11.50;;
8887;SDS011;4480;52.370;9.748;2023-05-21T13:02:19;13.50;;;12.30;;
8887;SDS011;4480;52.370;9.748;2023-05-21T13:04:47;13.87;;;12.00;;
8887;SDS011;4480;52.370;9.748;2023-05-21T13:07:19;13.60;;;12.33;;
8887;SDS011;4480;52.370;9.748;2023-05-21T13:09:47;13.63;;;12.37;;
8887;SDS011;4480;52.370;9.748;2023-05-21T13:12:17;13.50;;;12.30;;
8887;SDS011;4480;52.370;9.748;2023-05-21T13:14:44;13.43;;;12.13;;
8887;SDS011;4480;52.370;9.748;2023-05-21T13:17:10;14.10;;;12.80;;
8887;SDS011;4480;52.370;9.748;2023-05-21T13:19:37;13.50;;;12.20;;
8887;SDS011;4480;52.370;9.748;2023-05-21T13:22:04;13.60;;;12.30;;
8887;SDS011;4480;52.370;9.748;2023-05-21T13:24:31;13.00;;;11.90;;
8887;SDS011;4480;52.370;9.748;2023-05-21T13:26:59;14.03;;;12.73;;
8887;SDS011;4480;52.370;9.748;2023-05-21T13:29:26;13.00;;;11.80;;
8887;SDS011;4480;52.370;9.748;2023-05-21T13:31:52;13.17;;;11.97;;
8887;SDS011;4480;52.370;9.748;2023-05-21T13:34:19;14.57;;;13.00;;
8887;SDS011;4480;52.370;9.748;2023-05-21T13:36:46;14.33;;;12.80;;
8887;SDS011;4480;52.370;9.748;2023-05-21T13:39:13;12.60;;;11.40;;
8887;SDS011;4480;52.370;9.748;2023-05-21T13:41:40;12.77;;;11.57;;
8887;SDS011;4480;52.370;9.748;2023-05-21T13:44:09;14.10;;;12.70;;
8887;SDS011;4480;52.370;9.748;2023-05-21T13:46:36;13.30;;;12.00;;
8887;SDS011;4480;52.370;9.748;2023-05-21T13:49:03;14.80;;;12.93;;
8887;SDS011;4480;52.370;9.748;2023-05-21T13:51:31;13.60;;;12.30;;
8887;SDS011;4480;52.370;9.748;2023-05-21T13:53:58;13.40;;;12.23;;
8887;SDS011;4480;52.370;9.748;2023-05-21T13:56:25;15.17;;;13.60;;
8887;SDS011;4480;52.370;9.748;2023-05-21T13:58:51;13.10;;;11.90;;
8887;SDS011;4480;52.370;9.748;2023-05-21T14:01:19;13.47;;;12.27;;
8887;SDS011;4480;52.370;9.748;2023-05-21T14:03:46;13.90;;;12.57;;
8887;SDS011;4480;52.370;9.748;2023-05-21T14:06:13;18.10;;;13.50;;
8887;SDS011;4480;52.370;9.748;2023-05-21T14:08:40;14.80;;;13.40;;
8887;SDS011;4480;52.370;9.748;2023-05-21T14:11:07;14.50;;;13.03;;
8887;SDS011;4480;52.370;9.748;2023-05-21T14:13:34;13.23;;;12.03;;
8887;SDS011;4480;52.370;9.748;2023-05-21T14:16:00;14.33;;;13.03;;
8887;SDS011;4480;52.370;9.748;2023-05-21T14:18:29;15.10;;;13.67;;
8887;SDS011;4480;52.370;9.748;2023-05-21T14:20:55;14.53;;;13.23;;
8887;SDS011;4480;52.370;9.748;2023-05-21T14:23:22;14.70;;;13.27;;
8887;SDS011;4480;52.370;9.748;2023-05-21T14:25:49;14.70;;;13.40;;
8887;SDS011;4480;52.370;9.748;2023-05-21T14:28:16;13.40;;;12.20;;
8887;SDS011;4480;52.370;9.748;2023-05-21T14:30:43;15.10;;;13.70;;
8887;SDS011;4480;52.370;9.748;2023-05-21T14:33:09;14.43;;;13.13;;
8887;SDS011;4480;52.370;9.748;2023-05-21T14:35:38;14.40;;;12.97;;
8887;SDS011;4480;52.370;9.748;2023-05-21T14:38:08;16.77;;;13.73;;
8887;SDS011;4480;52.370;9.748;2023-05-21T14:40:34;14.67;;;13.27;;
8887;SDS011;4480;52.370;9.748;2023-05-21T14:43:01;15.20;;;13.87;;
8887;SDS011;4480;52.370;9.748;2023-05-21T14:45:29;15.70;;;14.00;;
8887;SDS011;4480;52.370;9.748;2023-05-21T14:47:59;15.03;;;13.70;;
8887;SDS011;4480;52.370;9.748;2023-05-21T14:50:26;14.00;;;12.80;;
8887;SDS011;4480;52.370;9.748;2023-05-21T14:52:54;15.00;;;13.50;;
8887;SDS011;4480;52.370;9.748;2023-05-21T14:55:20;15.70;;;14.17;;
8887;SDS011;4480;52.370;9.748;2023-05-21T14:57:47;15.07;;;13.60;;
8887;SDS011;4480;52.370;9.748;2023-05-21T15:00:14;14.30;;;12.80;;
8887;SDS011;4480;52.370;9.748;2023-05-21T15:02:41;14.40;;;12.83;;
8887;SDS011;4480;52.370;9.748;2023-05-21T15:05:08;16.10;;;14.60;;
8887;SDS011;4480;52.370;9.748;2023-05-21T15:07:35;15.57;;;14.07;;
8887;SDS011;4480;52.370;9.748;2023-05-21T15:10:03;14.33;;;13.00;;
8887;SDS011;4480;52.370;9.748;2023-05-21T15:12:31;15.93;;;14.43;;
8887;SDS011;4480;52.370;9.748;2023-05-21T15:14:58;15.37;;;13.97;;
8887;SDS011;4480;52.370;9.748;2023-05-21T15:17:24;15.40;;;14.00;;
8887;SDS011;4480;52.370;9.748;2023-05-21T15:19:51;14.77;;;13.47;;
8887;SDS011;4480;52.370;9.748;2023-05-21T15:22:18;14.57;;;13.07;;